sensor_id;sensor_type;location;lat;lon;timestamp;P1;durP1;ratioP1;P2;durP2;ratioP2
35518;SDS011;21627;48.216;16.482;2024-02-21T00:00:02;14.15;;;3.83;;
35518;SDS011;21627;48.216;16.482;2024-02-21T00:02:31;11.80;;;3.22;;
35518;SDS011;21627;48.216;16.482;2024-02-21T00:04:58;12.43;;;3.88;;
35518;SDS011;21627;48.216;16.482;2024-02-21T00:07:26;13.18;;;3.50;;
35518;SDS011;21627;48.216;16.482;2024-02-21T00:09:53;16.90;;;3.83;;
35518;SDS011;21627;48.216;16.482;2024-02-21T00:12:20;9.05;;;2.88;;
35518;SDS011;21627;48.216;16.482;2024-02-21T00:14:47;12.75;;;3.13;;
35518;SDS011;21627;48.216;16.482;2024-02-21T00:17:14;7.10;;;3.05;;
35518;SDS011;21627;48.216;16.482;2024-02-21T00:19:41;13.48;;;3.92;;
35518;SDS011;21627;48.216;16.482;2024-02-21T00:22:08;8.00;;;3.53;;
35518;SDS011;21627;48.216;16.482;2024-02-21T00:24:36;12.35;;;4.05;;
35518;SDS011;21627;48.216;16.482;2024-02-21T00:27:03;8.20;;;2.90;;
35518;SDS011;21627;48.216;16.482;2024-02-21T00:29:30;13.38;;;3.60;;
35518;SDS011;21627;48.216;16.482;2024-02-21T00:31:57;6.88;;;2.90;;
35518;SDS011;21627;48.216;16.482;2024-02-21T00:34:25;17.10;;;2.95;;
35518;SDS011;21627;48.216;16.482;2024-02-21T00:36:52;12.45;;;3.55;;
35518;SDS011;21627;48.216;16.482;2024-02-21T00:39:19;14.73;;;3.50;;
35518;SDS011;21627;48.216;16.482;2024-02-21T00:41:46;7.65;;;2.72;;
35518;SDS011;21627;48.216;16.482;2024-02-21T00:44:13;14.75;;;3.40;;
35518;SDS011;21627;48.216;16.482;2024-02-21T00:46:40;11.95;;;3.55;;
35518;SDS011;21627;48.216;16.482;2024-02-21T00:49:07;10.10;;;3.33;;
35518;SDS011;21627;48.216;16.482;2024-02-21T00:51:35;19.95;;;3.58;;
35518;SDS011;21627;48.216;16.482;2024-02-21T00:54:02;8.57;;;3.40;;
35518;SDS011;21627;48.216;16.482;2024-02-21T00:56:29;9.80;;;3.08;;
35518;SDS011;21627;48.216;16.482;2024-02-21T00:58:57;6.78;;;2.75;;
35518;SDS011;21627;48.216;16.482;2024-02-21T01:01:24;9.93;;;3.20;;
35518;SDS011;21627;48.216;16.482;2024-02-21T01:03:52;13.23;;;3.45;;
35518;SDS011;21627;48.216;16.482;2024-02-21T01:06:20;11.35;;;3.28;;
35518;SDS011;21627;48.216;16.482;2024-02-21T01:08:47;12.25;;;3.03;;
35518;SDS011;21627;48.216;16.482;2024-02-21T01:11:15;9.15;;;3.03;;
35518;SDS011;21627;48.216;16.482;2024-02-21T01:13:43;16.60;;;3.55;;
35518;SDS011;21627;48.216;16.482;2024-02-21T01:16:10;9.43;;;3.42;;
35518;SDS011;21627;48.216;16.482;2024-02-21T01:18:37;9.55;;;2.63;;
35518;SDS011;21627;48.216;16.482;2024-02-21T01:21:08;12.57;;;3.00;;
35518;SDS011;21627;48.216;16.482;2024-02-21T01:23:36;9.90;;;2.70;;
35518;SDS011;21627;48.216;16.482;2024-02-21T01:26:04;9.63;;;2.45;;
35518;SDS011;21627;48.216;16.482;2024-02-21T01:28:31;14.90;;;3.58;;
35518;SDS011;21627;48.216;16.482;2024-02-21T01:30:58;12.75;;;3.08;;
35518;SDS011;21627;48.216;16.482;2024-02-21T01:33:25;14.88;;;3.25;;
35518;SDS011;21627;48.216;16.482;2024-02-21T01:35:52;9.82;;;3.20;;
35518;SDS011;21627;48.216;16.482;2024-02-21T01:38:20;8.98;;;2.80;;
35518;SDS011;21627;48.216;16.482;2024-02-21T01:40:47;8.05;;;2.70;;
35518;SDS011;21627;48.216;16.482;2024-02-21T01:43:15;10.48;;;2.88;;
35518;SDS011;21627;48.216;16.482;2024-02-21T01:45:48;15.25;;;3.25;;
35518;SDS011;21627;48.216;16.482;2024-02-21T01:48:23;14.25;;;3.20;;
35518;SDS011;21627;48.216;16.482;2024-02-21T01:50:52;17.92;;;3.78;;
35518;SDS011;21627;48.216;16.482;2024-02-21T01:53:27;9.75;;;3.00;;
35518;SDS011;21627;48.216;16.482;2024-02-21T01:55:59;15.13;;;2.85;;
35518;SDS011;21627;48.216;16.482;2024-02-21T01:58:26;10.85;;;2.53;;
35518;SDS011;21627;48.216;16.482;2024-02-21T02:00:56;10.80;;;2.72;;
35518;SDS011;21627;48.216;16.482;2024-02-21T02:03:24;10.48;;;2.78;;
35518;SDS011;21627;48.216;16.482;2024-02-21T02:05:52;18.02;;;3.00;;
35518;SDS011;21627;48.216;16.482;2024-02-21T02:08:19;11.07;;;2.53;;
35518;SDS011;21627;48.216;16.482;2024-02-21T02:10:51;11.25;;;2.95;;
35518;SDS011;21627;48.216;16.482;2024-02-21T02:13:19;8.05;;;3.25;;
35518;SDS011;21627;48.216;16.482;2024-02-21T02:15:47;10.70;;;2.85;;
35518;SDS011;21627;48.216;16.482;2024-02-21T02:18:16;12.32;;;3.13;;
35518;SDS011;21627;48.216;16.482;2024-02-21T02:20:45;12.43;;;2.95;;
35518;SDS011;21627;48.216;16.482;2024-02-21T02:25:54;8.20;;;2.63;;
35518;SDS011;21627;48.216;16.482;2024-02-21T02:28:22;14.68;;;3.20;;
35518;SDS011;21627;48.216;16.482;2024-02-21T02:30:49;8.88;;;2.83;;
35518;SDS011;21627;48.216;16.482;2024-02-21T02:33:16;15.63;;;3.05;;
35518;SDS011;21627;48.216;16.482;2024-02-21T02:35:44;9.18;;;2.83;;
35518;SDS011;21627;48.216;16.482;2024-02-21T02:38:12;8.80;;;2.35;;
35518;SDS011;21627;48.216;16.482;2024-02-21T02:40:40;4.90;;;2.47;;
35518;SDS011;21627;48.216;16.482;2024-02-21T02:43:08;12.00;;;3.00;;
35518;SDS011;21627;48.216;16.482;2024-02-21T02:45:36;16.52;;;3.05;;
35518;SDS011;21627;48.216;16.482;2024-02-21T02:48:03;11.38;;;3.20;;
35518;SDS011;21627;48.216;16.482;2024-02-21T02:50:31;15.80;;;3.00;;
35518;SDS011;21627;48.216;16.482;2024-02-21T02:52:58;13.88;;;3.40;;
35518;SDS011;21627;48.216;16.482;2024-02-21T02:55:26;10.70;;;3.38;;
35518;SDS011;21627;48.216;16.482;2024-02-21T02:57:53;9.20;;;3.03;;
35518;SDS011;21627;48.216;16.482;2024-02-21T03:00:21;11.68;;;3.22;;
35518;SDS011;21627;48.216;16.482;2024-02-21T03:02:48;9.90;;;3.25;;
35518;SDS011;21627;48.216;16.482;2024-02-21T03:05:17;11.82;;;3.00;;
35518;SDS011;21627;48.216;16.482;2024-02-21T03:07:47;13.93;;;3.63;;
35518;SDS011;21627;48.216;16.482;2024-02-21T03:10:16;9.55;;;2.50;;
35518;SDS011;21627;48.216;16.482;2024-02-21T03:12:44;14.55;;;3.20;;
35518;SDS011;21627;48.216;16.482;2024-02-21T03:15:12;13.73;;;3.08;;
35518;SDS011;21627;48.216;16.482;2024-02-21T03:17:41;9.32;;;2.60;;
35518;SDS011;21627;48.216;16.482;2024-02-21T03:20:08;8.32;;;2.85;;
35518;SDS011;21627;48.216;16.482;2024-02-21T03:22:39;11.43;;;3.30;;
35518;SDS011;21627;48.216;16.482;2024-02-21T03:25:08;12.30;;;3.38;;
35518;SDS011;21627;48.216;16.482;2024-02-21T03:27:37;8.63;;;2.50;;
35518;SDS011;21627;48.216;16.482;2024-02-21T03:30:04;9.23;;;2.42;;
35518;SDS011;21627;48.216;16.482;2024-02-21T03:32:32;9.98;;;2.63;;
35518;SDS011;21627;48.216;16.482;2024-02-21T03:34:59;9.63;;;3.30;;
35518;SDS011;21627;48.216;16.482;2024-02-21T03:37:27;10.85;;;3.15;;
35518;SDS011;21627;48.216;16.482;2024-02-21T03:39:54;11.35;;;2.70;;
35518;SDS011;21627;48.216;16.482;2024-02-21T03:42:21;12.77;;;2.38;;
35518;SDS011;21627;48.216;16.482;2024-02-21T03:44:49;8.48;;;2.38;;
35518;SDS011;21627;48.216;16.482;2024-02-21T03:47:16;11.68;;;2.67;;
35518;SDS011;21627;48.216;16.482;2024-02-21T03:49:43;11.52;;;3.03;;
35518;SDS011;21627;48.216;16.482;2024-02-21T03:52:10;11.07;;;2.42;;
35518;SDS011;21627;48.216;16.482;2024-02-21T03:54:37;7.65;;;2.47;;
35518;SDS011;21627;48.216;16.482;2024-02-21T03:57:05;9.38;;;2.85;;
35518;SDS011;21627;48.216;16.482;2024-02-21T03:59:32;10.05;;;2.85;;
35518;SDS011;21627;48.216;16.482;2024-02-21T04:02:00;8.27;;;2.85;;
35518;SDS011;21627;48.216;16.482;2024-02-21T04:04:27;12.40;;;2.85;;
35518;SDS011;21627;48.216;16.482;2024-02-21T04:06:55;9.27;;;2.83;;
35518;SDS011;21627;48.216;16.482;2024-02-21T04:09:22;15.68;;;3.55;;
35518;SDS011;21627;48.216;16.482;2024-02-21T04:11:49;8.98;;;2.88;;
35518;SDS011;21627;48.216;16.482;2024-02-21T04:14:16;10.45;;;3.22;;
35518;SDS011;21627;48.216;16.482;2024-02-21T04:16:43;10.55;;;3.42;;
35518;SDS011;21627;48.216;16.482;2024-02-21T04:19:10;10.52;;;3.53;;
35518;SDS011;21627;48.216;16.482;2024-02-21T04:21:37;11.25;;;2.95;;
35518;SDS011;21627;48.216;16.482;2024-02-21T04:24:05;8.02;;;2.95;;
35518;SDS011;21627;48.216;16.482;2024-02-21T04:26:33;9.57;;;3.08;;
35518;SDS011;21627;48.216;16.482;2024-02-21T04:29:01;9.43;;;3.03;;
35518;SDS011;21627;48.216;16.482;2024-02-21T04:31:28;15.85;;;4.28;;
35518;SDS011;21627;48.216;16.482;2024-02-21T04:33:56;9.57;;;2.50;;
35518;SDS011;21627;48.216;16.482;2024-02-21T04:36:23;13.93;;;3.50;;
35518;SDS011;21627;48.216;16.482;2024-02-21T04:38:51;12.55;;;4.00;;
35518;SDS011;21627;48.216;16.482;2024-02-21T04:41:18;9.32;;;3.10;;
35518;SDS011;21627;48.216;16.482;2024-02-21T04:43:45;10.80;;;3.38;;
35518;SDS011;21627;48.216;16.482;2024-02-21T04:46:14;11.93;;;3.20;;
35518;SDS011;21627;48.216;16.482;2024-02-21T04:48:42;16.27;;;3.95;;
35518;SDS011;21627;48.216;16.482;2024-02-21T04:51:11;10.85;;;4.40;;
35518;SDS011;21627;48.216;16.482;2024-02-21T04:53:40;14.90;;;3.67;;
35518;SDS011;21627;48.216;16.482;2024-02-21T04:56:07;11.57;;;2.92;;
35518;SDS011;21627;48.216;16.482;2024-02-21T04:58:37;14.02;;;3.28;;
35518;SDS011;21627;48.216;16.482;2024-02-21T05:01:06;11.43;;;2.92;;
35518;SDS011;21627;48.216;16.482;2024-02-21T05:03:34;12.45;;;3.20;;
35518;SDS011;21627;48.216;16.482;2024-02-21T05:06:01;13.38;;;4.13;;
35518;SDS011;21627;48.216;16.482;2024-02-21T05:08:29;10.50;;;3.53;;
35518;SDS011;21627;48.216;16.482;2024-02-21T05:10:56;11.23;;;3.17;;
35518;SDS011;21627;48.216;16.482;2024-02-21T05:13:23;12.98;;;3.30;;
35518;SDS011;21627;48.216;16.482;2024-02-21T05:15:50;15.07;;;3.58;;
35518;SDS011;21627;48.216;16.482;2024-02-21T05:18:17;10.95;;;3.15;;
35518;SDS011;21627;48.216;16.482;2024-02-21T05:20:46;12.85;;;3.47;;
35518;SDS011;21627;48.216;16.482;2024-02-21T05:23:13;10.05;;;3.80;;
35518;SDS011;21627;48.216;16.482;2024-02-21T05:25:40;12.27;;;3.50;;
35518;SDS011;21627;48.216;16.482;2024-02-21T05:28:07;5.88;;;2.58;;
35518;SDS011;21627;48.216;16.482;2024-02-21T05:30:34;13.00;;;3.33;;
35518;SDS011;21627;48.216;16.482;2024-02-21T05:33:05;15.07;;;3.30;;
35518;SDS011;21627;48.216;16.482;2024-02-21T05:35:34;13.45;;;3.33;;
35518;SDS011;21627;48.216;16.482;2024-02-21T05:38:02;9.35;;;2.75;;
35518;SDS011;21627;48.216;16.482;2024-02-21T05:40:38;8.23;;;2.83;;
35518;SDS011;21627;48.216;16.482;2024-02-21T05:43:06;11.38;;;3.35;;
35518;SDS011;21627;48.216;16.482;2024-02-21T05:45:34;9.45;;;2.72;;
35518;SDS011;21627;48.216;16.482;2024-02-21T05:48:02;10.95;;;2.70;;
35518;SDS011;21627;48.216;16.482;2024-02-21T05:50:33;12.38;;;3.63;;
35518;SDS011;21627;48.216;16.482;2024-02-21T05:53:00;12.75;;;3.08;;
35518;SDS011;21627;48.216;16.482;2024-02-21T05:55:29;7.00;;;2.85;;
35518;SDS011;21627;48.216;16.482;2024-02-21T05:57:57;11.98;;;3.17;;
35518;SDS011;21627;48.216;16.482;2024-02-21T06:00:25;18.27;;;3.03;;
35518;SDS011;21627;48.216;16.482;2024-02-21T06:02:52;7.90;;;2.50;;
35518;SDS011;21627;48.216;16.482;2024-02-21T06:05:19;17.42;;;3.53;;
35518;SDS011;21627;48.216;16.482;2024-02-21T06:07:46;7.40;;;2.60;;
35518;SDS011;21627;48.216;16.482;2024-02-21T06:10:13;9.27;;;2.47;;
35518;SDS011;21627;48.216;16.482;2024-02-21T06:12:41;10.05;;;2.60;;
35518;SDS011;21627;48.216;16.482;2024-02-21T06:15:08;12.75;;;2.58;;
35518;SDS011;21627;48.216;16.482;2024-02-21T06:17:36;11.30;;;2.97;;
35518;SDS011;21627;48.216;16.482;2024-02-21T06:20:03;6.28;;;2.55;;
35518;SDS011;21627;48.216;16.482;2024-02-21T06:22:31;8.90;;;2.47;;
35518;SDS011;21627;48.216;16.482;2024-02-21T06:24:58;10.00;;;3.15;;
35518;SDS011;21627;48.216;16.482;2024-02-21T06:27:26;11.30;;;2.92;;
35518;SDS011;21627;48.216;16.482;2024-02-21T06:29:53;12.95;;;2.60;;
35518;SDS011;21627;48.216;16.482;2024-02-21T06:32:20;6.95;;;2.80;;
35518;SDS011;21627;48.216;16.482;2024-02-21T06:34:47;15.10;;;2.78;;
35518;SDS011;21627;48.216;16.482;2024-02-21T06:37:14;13.05;;;2.33;;
35518;SDS011;21627;48.216;16.482;2024-02-21T06:39:41;11.77;;;2.42;;
35518;SDS011;21627;48.216;16.482;2024-02-21T06:42:09;7.15;;;2.42;;
35518;SDS011;21627;48.216;16.482;2024-02-21T06:44:36;9.20;;;2.97;;
35518;SDS011;21627;48.216;16.482;2024-02-21T06:47:07;7.72;;;2.65;;
35518;SDS011;21627;48.216;16.482;2024-02-21T06:49:37;9.82;;;2.25;;
35518;SDS011;21627;48.216;16.482;2024-02-21T06:52:04;7.47;;;2.20;;
35518;SDS011;21627;48.216;16.482;2024-02-21T06:54:32;9.73;;;2.35;;
35518;SDS011;21627;48.216;16.482;2024-02-21T06:56:59;9.80;;;2.75;;
35518;SDS011;21627;48.216;16.482;2024-02-21T06:59:26;7.25;;;2.40;;
35518;SDS011;21627;48.216;16.482;2024-02-21T07:01:54;11.90;;;2.90;;
35518;SDS011;21627;48.216;16.482;2024-02-21T07:04:24;12.48;;;2.05;;
35518;SDS011;21627;48.216;16.482;2024-02-21T07:06:51;11.45;;;3.03;;
35518;SDS011;21627;48.216;16.482;2024-02-21T07:09:19;5.15;;;2.15;;
35518;SDS011;21627;48.216;16.482;2024-02-21T07:11:46;10.73;;;2.53;;
35518;SDS011;21627;48.216;16.482;2024-02-21T07:14:14;5.32;;;2.30;;
35518;SDS011;21627;48.216;16.482;2024-02-21T07:16:42;9.13;;;2.33;;
35518;SDS011;21627;48.216;16.482;2024-02-21T07:19:09;9.35;;;2.70;;
35518;SDS011;21627;48.216;16.482;2024-02-21T07:21:37;10.45;;;2.40;;
35518;SDS011;21627;48.216;16.482;2024-02-21T07:24:06;8.32;;;2.70;;
35518;SDS011;21627;48.216;16.482;2024-02-21T07:26:34;9.10;;;2.53;;
35518;SDS011;21627;48.216;16.482;2024-02-21T07:29:01;10.30;;;2.42;;
35518;SDS011;21627;48.216;16.482;2024-02-21T07:31:28;7.63;;;2.03;;
35518;SDS011;21627;48.216;16.482;2024-02-21T07:33:55;7.93;;;2.10;;
35518;SDS011;21627;48.216;16.482;2024-02-21T07:36:28;8.48;;;2.70;;
35518;SDS011;21627;48.216;16.482;2024-02-21T07:38:59;5.13;;;1.77;;
35518;SDS011;21627;48.216;16.482;2024-02-21T07:41:26;8.13;;;1.80;;
35518;SDS011;21627;48.216;16.482;2024-02-21T07:43:56;14.13;;;2.50;;
35518;SDS011;21627;48.216;16.482;2024-02-21T07:46:24;12.38;;;2.55;;
35518;SDS011;21627;48.216;16.482;2024-02-21T07:48:51;11.43;;;2.08;;
35518;SDS011;21627;48.216;16.482;2024-02-21T07:51:18;6.53;;;1.70;;
35518;SDS011;21627;48.216;16.482;2024-02-21T07:53:46;11.43;;;2.33;;
35518;SDS011;21627;48.216;16.482;2024-02-21T07:56:14;3.30;;;1.70;;
35518;SDS011;21627;48.216;16.482;2024-02-21T07:58:42;10.95;;;2.47;;
35518;SDS011;21627;48.216;16.482;2024-02-21T08:01:09;7.72;;;2.03;;
35518;SDS011;21627;48.216;16.482;2024-02-21T08:03:37;10.93;;;2.05;;
35518;SDS011;21627;48.216;16.482;2024-02-21T08:06:04;12.13;;;2.15;;
35518;SDS011;21627;48.216;16.482;2024-02-21T08:08:31;6.68;;;2.17;;
35518;SDS011;21627;48.216;16.482;2024-02-21T08:10:58;8.25;;;2.22;;
35518;SDS011;21627;48.216;16.482;2024-02-21T08:13:26;8.18;;;1.75;;
35518;SDS011;21627;48.216;16.482;2024-02-21T08:15:55;7.85;;;2.00;;
35518;SDS011;21627;48.216;16.482;2024-02-21T08:18:23;9.35;;;1.98;;
35518;SDS011;21627;48.216;16.482;2024-02-21T08:20:51;7.20;;;2.05;;
35518;SDS011;21627;48.216;16.482;2024-02-21T08:23:18;7.18;;;2.00;;
35518;SDS011;21627;48.216;16.482;2024-02-21T08:25:46;8.88;;;2.38;;
35518;SDS011;21627;48.216;16.482;2024-02-21T08:28:13;10.13;;;2.28;;
35518;SDS011;21627;48.216;16.482;2024-02-21T08:30:40;11.73;;;1.98;;
35518;SDS011;21627;48.216;16.482;2024-02-21T08:33:14;6.55;;;1.88;;
35518;SDS011;21627;48.216;16.482;2024-02-21T08:35:43;5.80;;;1.88;;
35518;SDS011;21627;48.216;16.482;2024-02-21T08:38:10;11.07;;;1.95;;
35518;SDS011;21627;48.216;16.482;2024-02-21T08:40:37;9.07;;;1.80;;
35518;SDS011;21627;48.216;16.482;2024-02-21T08:43:04;7.65;;;1.92;;
35518;SDS011;21627;48.216;16.482;2024-02-21T08:45:32;8.20;;;1.75;;
35518;SDS011;21627;48.216;16.482;2024-02-21T08:47:59;7.90;;;1.83;;
35518;SDS011;21627;48.216;16.482;2024-02-21T08:50:26;5.93;;;1.55;;
35518;SDS011;21627;48.216;16.482;2024-02-21T08:52:55;7.25;;;1.90;;
35518;SDS011;21627;48.216;16.482;2024-02-21T08:55:23;11.27;;;2.13;;
35518;SDS011;21627;48.216;16.482;2024-02-21T08:57:50;8.55;;;1.83;;
35518;SDS011;21627;48.216;16.482;2024-02-21T09:00:18;8.43;;;1.50;;
35518;SDS011;21627;48.216;16.482;2024-02-21T09:02:50;6.97;;;1.58;;
35518;SDS011;21627;48.216;16.482;2024-02-21T09:05:17;6.50;;;1.50;;
35518;SDS011;21627;48.216;16.482;2024-02-21T09:07:45;7.00;;;1.50;;
35518;SDS011;21627;48.216;16.482;2024-02-21T09:10:13;8.85;;;1.77;;
35518;SDS011;21627;48.216;16.482;2024-02-21T09:12:40;6.25;;;1.48;;
35518;SDS011;21627;48.216;16.482;2024-02-21T09:15:07;9.80;;;2.20;;
35518;SDS011;21627;48.216;16.482;2024-02-21T09:17:35;7.03;;;1.88;;
35518;SDS011;21627;48.216;16.482;2024-02-21T09:20:02;7.45;;;1.60;;
35518;SDS011;21627;48.216;16.482;2024-02-21T09:22:30;3.88;;;1.70;;
35518;SDS011;21627;48.216;16.482;2024-02-21T09:25:01;6.57;;;1.75;;
35518;SDS011;21627;48.216;16.482;2024-02-21T09:27:30;4.10;;;1.75;;
35518;SDS011;21627;48.216;16.482;2024-02-21T09:29:57;6.68;;;2.00;;
35518;SDS011;21627;48.216;16.482;2024-02-21T09:32:24;5.85;;;1.70;;
35518;SDS011;21627;48.216;16.482;2024-02-21T09:34:52;10.20;;;2.08;;
35518;SDS011;21627;48.216;16.482;2024-02-21T09:37:25;12.23;;;1.90;;
35518;SDS011;21627;48.216;16.482;2024-02-21T09:39:52;5.97;;;2.08;;
35518;SDS011;21627;48.216;16.482;2024-02-21T09:42:20;4.53;;;1.65;;
35518;SDS011;21627;48.216;16.482;2024-02-21T09:44:50;8.68;;;2.08;;
35518;SDS011;21627;48.216;16.482;2024-02-21T09:47:19;6.65;;;2.08;;
35518;SDS011;21627;48.216;16.482;2024-02-21T09:49:51;9.05;;;1.98;;
35518;SDS011;21627;48.216;16.482;2024-02-21T09:52:20;5.95;;;1.63;;
35518;SDS011;21627;48.216;16.482;2024-02-21T09:54:48;6.32;;;1.67;;
35518;SDS011;21627;48.216;16.482;2024-02-21T09:57:18;5.75;;;1.77;;
35518;SDS011;21627;48.216;16.482;2024-02-21T09:59:46;7.45;;;1.90;;
35518;SDS011;21627;48.216;16.482;2024-02-21T10:02:13;6.05;;;1.75;;
35518;SDS011;21627;48.216;16.482;2024-02-21T10:04:41;11.05;;;2.50;;
35518;SDS011;21627;48.216;16.482;2024-02-21T10:07:08;7.03;;;1.67;;
35518;SDS011;21627;48.216;16.482;2024-02-21T10:09:35;8.57;;;1.80;;
35518;SDS011;21627;48.216;16.482;2024-02-21T10:12:09;8.48;;;1.60;;
35518;SDS011;21627;48.216;16.482;2024-02-21T10:14:38;9.68;;;2.00;;
35518;SDS011;21627;48.216;16.482;2024-02-21T10:17:06;5.78;;;1.92;;
35518;SDS011;21627;48.216;16.482;2024-02-21T10:19:37;6.85;;;1.63;;
35518;SDS011;21627;48.216;16.482;2024-02-21T10:22:07;10.60;;;1.63;;
35518;SDS011;21627;48.216;16.482;2024-02-21T10:24:36;6.90;;;1.88;;
35518;SDS011;21627;48.216;16.482;2024-02-21T10:27:12;12.65;;;1.80;;
35518;SDS011;21627;48.216;16.482;2024-02-21T10:29:40;6.35;;;1.95;;
35518;SDS011;21627;48.216;16.482;2024-02-21T10:32:12;7.75;;;1.40;;
35518;SDS011;21627;48.216;16.482;2024-02-21T10:34:41;3.85;;;1.42;;
35518;SDS011;21627;48.216;16.482;2024-02-21T10:37:10;7.40;;;1.50;;
35518;SDS011;21627;48.216;16.482;2024-02-21T10:39:39;8.40;;;1.92;;
35518;SDS011;21627;48.216;16.482;2024-02-21T10:42:09;12.82;;;1.70;;
35518;SDS011;21627;48.216;16.482;2024-02-21T10:44:39;8.57;;;1.90;;
35518;SDS011;21627;48.216;16.482;2024-02-21T10:47:09;8.43;;;1.70;;
35518;SDS011;21627;48.216;16.482;2024-02-21T10:49:40;7.90;;;2.08;;
35518;SDS011;21627;48.216;16.482;2024-02-21T10:55:20;7.35;;;1.77;;
35518;SDS011;21627;48.216;16.482;2024-02-21T10:57:53;4.72;;;1.63;;
35518;SDS011;21627;48.216;16.482;2024-02-21T11:00:22;6.50;;;1.70;;
35518;SDS011;21627;48.216;16.482;2024-02-21T11:02:53;7.60;;;1.88;;
35518;SDS011;21627;48.216;16.482;2024-02-21T11:05:21;7.07;;;1.83;;
35518;SDS011;21627;48.216;16.482;2024-02-21T11:07:49;6.28;;;1.80;;
35518;SDS011;21627;48.216;16.482;2024-02-21T11:10:23;10.00;;;2.30;;
35518;SDS011;21627;48.216;16.482;2024-02-21T11:13:07;7.80;;;2.13;;
35518;SDS011;21627;48.216;16.482;2024-02-21T11:15:35;8.57;;;2.03;;
35518;SDS011;21627;48.216;16.482;2024-02-21T11:18:02;10.25;;;1.55;;
35518;SDS011;21627;48.216;16.482;2024-02-21T11:20:37;12.27;;;1.70;;
35518;SDS011;21627;48.216;16.482;2024-02-21T11:23:05;6.85;;;1.60;;
35518;SDS011;21627;48.216;16.482;2024-02-21T11:25:32;5.63;;;1.85;;
35518;SDS011;21627;48.216;16.482;2024-02-21T11:28:01;10.18;;;1.67;;
35518;SDS011;21627;48.216;16.482;2024-02-21T11:30:30;6.93;;;1.92;;
35518;SDS011;21627;48.216;16.482;2024-02-21T11:33:02;7.20;;;1.60;;
35518;SDS011;21627;48.216;16.482;2024-02-21T11:35:33;8.25;;;1.63;;
35518;SDS011;21627;48.216;16.482;2024-02-21T11:38:08;8.43;;;2.72;;
35518;SDS011;21627;48.216;16.482;2024-02-21T11:40:44;8.57;;;1.83;;
35518;SDS011;21627;48.216;16.482;2024-02-21T11:43:13;5.50;;;1.77;;
35518;SDS011;21627;48.216;16.482;2024-02-21T11:45:41;4.95;;;1.67;;
35518;SDS011;21627;48.216;16.482;2024-02-21T11:48:08;8.50;;;1.67;;
35518;SDS011;21627;48.216;16.482;2024-02-21T11:50:36;5.15;;;2.00;;
35518;SDS011;21627;48.216;16.482;2024-02-21T11:53:05;5.30;;;2.22;;
35518;SDS011;21627;48.216;16.482;2024-02-21T11:55:33;7.07;;;1.75;;
35518;SDS011;21627;48.216;16.482;2024-02-21T11:58:01;5.88;;;1.88;;
35518;SDS011;21627;48.216;16.482;2024-02-21T12:00:29;11.00;;;1.95;;
35518;SDS011;21627;48.216;16.482;2024-02-21T12:02:57;9.00;;;2.20;;
35518;SDS011;21627;48.216;16.482;2024-02-21T12:05:28;11.98;;;1.98;;
35518;SDS011;21627;48.216;16.482;2024-02-21T12:07:55;6.85;;;1.23;;
35518;SDS011;21627;48.216;16.482;2024-02-21T12:10:27;5.60;;;1.90;;
35518;SDS011;21627;48.216;16.482;2024-02-21T12:13:16;8.98;;;1.98;;
35518;SDS011;21627;48.216;16.482;2024-02-21T12:15:42;5.63;;;1.60;;
35518;SDS011;21627;48.216;16.482;2024-02-21T12:18:15;11.70;;;1.83;;
35518;SDS011;21627;48.216;16.482;2024-02-21T12:20:42;4.07;;;1.67;;
35518;SDS011;21627;48.216;16.482;2024-02-21T12:23:10;9.85;;;1.92;;
35518;SDS011;21627;48.216;16.482;2024-02-21T12:25:38;9.45;;;1.75;;
35518;SDS011;21627;48.216;16.482;2024-02-21T12:28:06;6.93;;;1.67;;
35518;SDS011;21627;48.216;16.482;2024-02-21T12:30:33;5.43;;;1.55;;
35518;SDS011;21627;48.216;16.482;2024-02-21T12:33:01;5.15;;;1.95;;
35518;SDS011;21627;48.216;16.482;2024-02-21T12:35:28;7.22;;;1.52;;
35518;SDS011;21627;48.216;16.482;2024-02-21T12:37:58;6.28;;;1.70;;
35518;SDS011;21627;48.216;16.482;2024-02-21T12:40:26;11.13;;;1.85;;
35518;SDS011;21627;48.216;16.482;2024-02-21T12:43:01;9.65;;;1.95;;
35518;SDS011;21627;48.216;16.482;2024-02-21T12:45:29;9.88;;;1.70;;
35518;SDS011;21627;48.216;16.482;2024-02-21T12:47:57;5.70;;;1.52;;
35518;SDS011;21627;48.216;16.482;2024-02-21T12:50:24;7.03;;;1.25;;
35518;SDS011;21627;48.216;16.482;2024-02-21T12:52:52;10.43;;;1.88;;
35518;SDS011;21627;48.216;16.482;2024-02-21T12:55:19;9.98;;;1.77;;
35518;SDS011;21627;48.216;16.482;2024-02-21T12:57:46;5.18;;;1.27;;
35518;SDS011;21627;48.216;16.482;2024-02-21T13:00:13;8.00;;;1.85;;
35518;SDS011;21627;48.216;16.482;2024-02-21T13:02:41;3.20;;;1.33;;
35518;SDS011;21627;48.216;16.482;2024-02-21T13:05:09;5.97;;;1.75;;
35518;SDS011;21627;48.216;16.482;2024-02-21T13:07:36;6.90;;;1.48;;
35518;SDS011;21627;48.216;16.482;2024-02-21T13:10:03;6.28;;;1.90;;
35518;SDS011;21627;48.216;16.482;2024-02-21T13:12:31;8.63;;;1.67;;
35518;SDS011;21627;48.216;16.482;2024-02-21T13:14:59;8.90;;;1.45;;
35518;SDS011;21627;48.216;16.482;2024-02-21T13:17:26;4.78;;;1.45;;
35518;SDS011;21627;48.216;16.482;2024-02-21T13:19:57;6.22;;;1.88;;
35518;SDS011;21627;48.216;16.482;2024-02-21T13:22:24;6.75;;;1.63;;
35518;SDS011;21627;48.216;16.482;2024-02-21T13:24:54;6.07;;;1.38;;
35518;SDS011;21627;48.216;16.482;2024-02-21T13:27:24;9.10;;;1.42;;
35518;SDS011;21627;48.216;16.482;2024-02-21T13:29:51;6.25;;;1.45;;
35518;SDS011;21627;48.216;16.482;2024-02-21T13:32:19;9.13;;;1.67;;
35518;SDS011;21627;48.216;16.482;2024-02-21T13:34:46;5.18;;;1.30;;
35518;SDS011;21627;48.216;16.482;2024-02-21T13:37:13;3.03;;;1.10;;
35518;SDS011;21627;48.216;16.482;2024-02-21T13:39:41;5.57;;;1.25;;
35518;SDS011;21627;48.216;16.482;2024-02-21T13:42:08;2.55;;;1.00;;
35518;SDS011;21627;48.216;16.482;2024-02-21T13:44:35;6.13;;;1.63;;
35518;SDS011;21627;48.216;16.482;2024-02-21T13:47:03;6.50;;;1.48;;
35518;SDS011;21627;48.216;16.482;2024-02-21T13:49:31;3.15;;;1.30;;
35518;SDS011;21627;48.216;16.482;2024-02-21T13:51:59;10.00;;;1.80;;
35518;SDS011;21627;48.216;16.482;2024-02-21T13:54:26;3.83;;;1.50;;
35518;SDS011;21627;48.216;16.482;2024-02-21T13:56:53;9.25;;;2.00;;
35518;SDS011;21627;48.216;16.482;2024-02-21T13:59:20;6.95;;;1.98;;
35518;SDS011;21627;48.216;16.482;2024-02-21T14:01:48;11.60;;;1.30;;
35518;SDS011;21627;48.216;16.482;2024-02-21T14:04:15;6.25;;;2.15;;
35518;SDS011;21627;48.216;16.482;2024-02-21T14:06:42;6.28;;;1.40;;
35518;SDS011;21627;48.216;16.482;2024-02-21T14:09:10;4.55;;;1.40;;
35518;SDS011;21627;48.216;16.482;2024-02-21T14:11:37;7.30;;;2.45;;
35518;SDS011;21627;48.216;16.482;2024-02-21T14:14:06;8.05;;;1.10;;
35518;SDS011;21627;48.216;16.482;2024-02-21T14:16:33;13.10;;;1.92;;
35518;SDS011;21627;48.216;16.482;2024-02-21T14:19:00;6.30;;;1.60;;
35518;SDS011;21627;48.216;16.482;2024-02-21T14:21:28;7.45;;;1.10;;
35518;SDS011;21627;48.216;16.482;2024-02-21T14:23:55;5.65;;;1.33;;
35518;SDS011;21627;48.216;16.482;2024-02-21T14:26:23;5.45;;;1.08;;
35518;SDS011;21627;48.216;16.482;2024-02-21T14:28:50;7.45;;;1.40;;
35518;SDS011;21627;48.216;16.482;2024-02-21T14:31:17;5.47;;;1.60;;
35518;SDS011;21627;48.216;16.482;2024-02-21T14:33:44;5.43;;;1.65;;
35518;SDS011;21627;48.216;16.482;2024-02-21T14:36:12;6.22;;;1.52;;
35518;SDS011;21627;48.216;16.482;2024-02-21T14:38:41;5.50;;;2.00;;